Main page
METAR-TAF:

METAR-TAF

Airports :

Dubai International Airport

Dubai, United Arab Emirates

latitude: 25-15-10N, longitude: 055-21-52E, elevation: 8 m

Current weather observation

The report was made 55 minutes ago, at 01:00 UTC
Wind 7 kt from the South
Temperature 24°C
Humidity 69%
Pressure 1015 hPa
Visibility 10 km or more
Scattered clouds at a height of 3500 ft

METAR: OMDB 190100Z 18007KT 9999 SCT035 24/18 Q1015 NOSIG

Time: 05:55 (01:55 UTC)

Forecast

The report was made 3 hours and 2 minutes ago, at 22:53 UTC
Forecast valid from 19 at 00 UTC to 20 at 06 UTC
Wind 10 kt from the West
Visibility 10 km or more
Scattered clouds at a height of 4000 ft
Probability 40%
from 19 at 00 UTC to 19 at 06 UTC
Wind 5 kt from the South/Southwest
Becoming
from 19 at 15 UTC to 19 at 17 UTC
Wind 5 kt from the South

TAF: OMDB 182253Z 1900/2006 27010KT 9999 SCT040 PROB40 1900/1906 21005KT BECMG 1915/1917 18005KT

Weather observations and forecasts of more than 4000 airports (METAR and TAF reports).

The available stations are represented by yellow and red dots on the map.

Hover mouse over dot to see the name of the station.

Then click to see weather observations and forecasts.

To change the map : click on the green buttons with a black cross to zoom in, on the green button with a dash to zoom out, or on the green arrows for adjacent maps.


METAR-TAF: